Time;durP1;ratioP1;P1;durP2;ratioP2;P2;SDS_P1;SDS_P2;PMS_P1;PMS_P2;Temp;Humidity;BMP_temperature;BMP_pressure;BME280_temperature;BME280_humidity;BME280_pressure;Samples;Min_cycle;Max_cycle;Signal;HPM_P1;HPM_P2
2022/07/27 00:00:15;;;;;;;2.95;0.70;;;14.40;1.00;;;;;;5013175;28;20022;-73
2022/07/27 00:02:40;;;;;;;2.13;0.65;;;14.40;1.00;;;;;;5013175;28;20097;-73
2022/07/27 00:05:06;;;;;;;3.20;0.80;;;14.40;99.90;;;;;;5013294;28;20040;-74
2022/07/27 00:07:32;;;;;;;3.13;0.75;;;14.30;99.90;;;;;;5012978;28;20081;-74
2022/07/27 00:09:57;;;;;;;2.58;0.70;;;14.30;1.00;;;;;;5013078;28;20430;-74
2022/07/27 00:12:23;;;;;;;3.67;0.70;;;14.30;1.00;;;;;;5013030;28;20076;-74
2022/07/27 00:14:48;;;;;;;5.15;1.02;;;14.30;1.00;;;;;;5012991;28;20480;-74
2022/07/27 00:17:14;;;;;;;3.20;0.75;;;14.40;1.00;;;;;;5012453;28;20030;-74
2022/07/27 00:19:40;;;;;;;4.93;1.08;;;14.40;99.90;;;;;;5012131;28;20030;-74
2022/07/27 00:22:05;;;;;;;3.92;0.80;;;14.40;1.00;;;;;;5017374;28;20473;-74
2022/07/27 00:24:31;;;;;;;4.45;0.95;;;14.40;1.00;;;;;;5025066;28;20362;-74
2022/07/27 00:26:56;;;;;;;4.95;0.73;;;14.30;1.00;;;;;;5012774;28;20026;-74
2022/07/27 00:29:22;;;;;;;1.95;1.00;;;14.30;1.00;;;;;;5012602;28;20362;-74
2022/07/27 00:34:24;;;;;;;4.15;0.80;;;14.10;1.00;;;;;;5009239;28;20050;-81
2022/07/27 00:36:50;;;;;;;5.75;0.70;;;14.00;1.00;;;;;;5011559;28;20030;-82
2022/07/27 00:39:18;;;;;;;5.03;1.20;;;13.90;1.00;;;;;;5012798;28;20522;-81
2022/07/27 00:41:44;;;;;;;3.08;0.80;;;13.80;1.00;;;;;;5012674;28;20492;-80
2022/07/27 00:44:11;;;;;;;1.48;0.70;;;13.70;1.00;;;;;;5012994;28;20050;-82
2022/07/27 00:46:37;;;;;;;2.95;1.00;;;13.50;1.00;;;;;;5013203;28;20022;-81
2022/07/27 00:49:03;;;;;;;2.30;0.75;;;13.40;1.00;;;;;;5012758;28;20394;-81
2022/07/27 00:51:28;;;;;;;5.38;1.27;;;13.30;1.00;;;;;;4994583;28;20470;-81
2022/07/27 00:53:55;;;;;;;2.42;0.80;;;13.20;1.00;;;;;;5004381;28;20030;-80
2022/07/27 00:56:21;;;;;;;4.43;0.70;;;13.00;1.00;;;;;;5012637;28;20033;-80
2022/07/27 00:58:49;;;;;;;4.35;1.00;;;13.00;1.00;;;;;;5012637;28;20496;-79
2022/07/27 01:01:16;;;;;;;1.95;0.70;;;12.80;1.00;;;;;;5012708;28;20041;-81
2022/07/27 01:03:41;;;;;;;5.53;0.90;;;12.70;1.00;;;;;;5012510;28;20521;-80
2022/07/27 01:06:08;;;;;;;3.67;0.80;;;12.60;1.00;;;;;;5012306;28;20026;-83
2022/07/27 01:08:34;;;;;;;5.50;1.08;;;12.60;1.00;;;;;;5011647;28;20033;-84
2022/07/27 01:11:01;;;;;;;3.20;0.90;;;12.30;1.00;;;;;;5012473;28;20024;-83
2022/07/27 01:13:27;;;;;;;5.72;1.00;;;12.30;1.00;;;;;;5012469;28;20022;-83
2022/07/27 01:15:54;;;;;;;7.18;1.00;;;12.10;1.00;;;;;;5029141;28;20105;-83
2022/07/27 01:18:32;;;;;;;3.58;0.70;;;12.10;1.00;;;;;;5032228;28;20465;-83
2022/07/27 01:21:00;;;;;;;1.27;0.60;;;12.00;1.00;;;;;;5031956;28;20540;-82
2022/07/27 01:23:26;;;;;;;3.25;1.00;;;11.90;1.00;;;;;;5022376;28;20022;-82
2022/07/27 01:25:52;;;;;;;6.90;0.80;;;11.90;1.00;;;;;;5012423;28;20080;-83
2022/07/27 01:28:18;;;;;;;2.10;0.68;;;11.70;1.00;;;;;;5012454;28;20040;-85
2022/07/27 01:30:44;;;;;;;4.75;0.75;;;11.60;1.00;;;;;;5012403;28;20101;-84
2022/07/27 01:33:10;;;;;;;3.92;1.13;;;11.50;1.00;;;;;;5012432;28;20038;-84
2022/07/27 01:35:37;;;;;;;3.50;1.05;;;11.40;1.00;;;;;;4996095;28;20065;-83
2022/07/27 01:38:04;;;;;;;2.33;0.75;;;11.30;1.00;;;;;;4992717;28;20026;-84
2022/07/27 01:40:29;;;;;;;3.80;0.70;;;11.30;1.00;;;;;;4993095;28;20026;-83
2022/07/27 01:42:55;;;;;;;3.03;0.60;;;11.20;1.00;;;;;;5004827;28;20021;-82
2022/07/27 01:45:21;;;;;;;4.22;0.90;;;11.30;1.00;;;;;;5000777;28;20026;-82
2022/07/27 01:47:47;;;;;;;5.05;0.90;;;11.20;1.00;;;;;;5010668;28;20421;-83
2022/07/27 01:50:13;;;;;;;3.90;0.90;;;11.20;1.00;;;;;;5015893;28;20045;-84
2022/07/27 01:52:39;;;;;;;2.30;0.68;;;11.20;1.00;;;;;;5000293;28;20030;-83
2022/07/27 01:55:09;;;;;;;5.35;1.00;;;11.10;1.00;;;;;;4996225;28;20026;-83
2022/07/27 01:57:35;;;;;;;3.90;0.70;;;11.20;1.00;;;;;;4996182;28;20110;-82
2022/07/27 02:00:01;;;;;;;3.00;0.60;;;11.10;1.00;;;;;;4996146;28;20105;-83
2022/07/27 02:02:26;;;;;;;4.15;1.00;;;11.00;1.00;;;;;;4996014;28;20030;-83
2022/07/27 02:04:52;;;;;;;6.18;0.88;;;10.90;1.00;;;;;;4995883;28;20030;-82
2022/07/27 02:07:17;;;;;;;4.47;0.80;;;11.00;1.00;;;;;;4995865;28;20028;-83
2022/07/27 02:09:44;;;;;;;2.60;0.73;;;11.00;1.00;;;;;;4995845;28;20486;-82
2022/07/27 02:14:55;;;;;;;2.80;1.25;;;11.10;1.00;;;;;;4996041;28;20073;-83
2022/07/27 02:17:21;;;;;;;3.92;0.63;;;11.10;1.00;;;;;;4995704;28;20105;-82
2022/07/27 02:19:47;;;;;;;2.30;0.60;;;11.00;1.00;;;;;;4995923;28;20018;-83
2022/07/27 02:22:13;;;;;;;1.88;0.93;;;11.00;1.00;;;;;;4995751;28;20092;-83
2022/07/27 02:24:38;;;;;;;1.95;0.70;;;10.90;1.00;;;;;;4995559;28;20030;-82
2022/07/27 02:27:04;;;;;;;1.42;0.68;;;10.80;1.00;;;;;;4995394;28;20045;-83
2022/07/27 02:29:29;;;;;;;2.42;0.90;;;10.80;1.00;;;;;;4995606;28;20034;-82
2022/07/27 02:31:55;;;;;;;2.75;0.77;;;10.70;1.00;;;;;;4995451;28;20015;-83
2022/07/27 02:34:21;;;;;;;4.65;1.20;;;10.70;1.00;;;;;;4995396;28;20056;-83
2022/07/27 02:36:47;;;;;;;3.13;0.98;;;10.60;1.00;;;;;;4995381;28;20363;-82
2022/07/27 02:39:12;;;;;;;3.90;0.90;;;10.60;1.00;;;;;;4995250;28;20093;-82
2022/07/27 02:41:38;;;;;;;1.80;0.70;;;10.50;1.00;;;;;;4995367;28;20025;-82
2022/07/27 02:44:04;;;;;;;7.30;1.00;;;10.40;1.00;;;;;;4995268;28;20022;-83
2022/07/27 02:46:29;;;;;;;4.95;0.88;;;10.30;1.00;;;;;;4995207;28;20025;-83
2022/07/27 02:48:55;;;;;;;2.88;0.90;;;10.20;1.00;;;;;;4995133;28;20058;-83
2022/07/27 02:51:20;;;;;;;2.22;0.80;;;10.10;1.00;;;;;;4994878;28;20034;-83
2022/07/27 02:53:46;;;;;;;4.68;1.10;;;10.00;1.00;;;;;;4994032;28;20553;-83
2022/07/27 02:56:12;;;;;;;2.33;0.80;;;10.00;1.00;;;;;;4995042;28;20058;-82
2022/07/27 02:58:37;;;;;;;3.03;0.77;;;9.90;1.00;;;;;;4995011;28;20030;-82
2022/07/27 03:01:04;;;;;;;5.75;0.90;;;9.90;1.00;;;;;;4995100;28;20026;-83
2022/07/27 03:03:30;;;;;;;2.95;0.90;;;9.80;1.00;;;;;;4994813;28;20019;-82
2022/07/27 03:05:55;;;;;;;3.75;0.95;;;9.70;1.00;;;;;;5014406;28;20045;-83
2022/07/27 03:08:21;;;;;;;5.80;1.25;;;9.70;1.00;;;;;;5014240;28;20022;-83
2022/07/27 03:10:47;;;;;;;2.67;1.08;;;9.70;1.00;;;;;;5014290;28;20433;-83
2022/07/27 03:13:13;;;;;;;6.63;0.98;;;9.70;1.00;;;;;;4999044;28;20033;-83
2022/07/27 03:15:38;;;;;;;7.25;0.80;;;9.70;1.00;;;;;;4994617;28;20079;-82
2022/07/27 03:18:04;;;;;;;2.80;0.90;;;9.70;2.20;;;;;;5005696;28;20453;-83
2022/07/27 03:20:29;;;;;;;3.33;1.02;;;9.60;1.00;;;;;;5006847;28;20409;-82
2022/07/27 03:22:55;;;;;;;2.83;0.90;;;9.50;1.00;;;;;;4994448;28;20022;-82
2022/07/27 03:25:21;;;;;;;2.15;0.80;;;9.50;4.20;;;;;;4994512;28;20097;-82
2022/07/27 03:27:47;;;;;;;3.25;0.98;;;9.50;7.00;;;;;;4994520;28;20033;-82
2022/07/27 03:30:12;;;;;;;1.85;1.00;;;9.50;5.30;;;;;;4994367;28;20157;-83
2022/07/27 03:32:38;;;;;;;6.07;0.85;;;9.50;10.60;;;;;;4994103;28;20046;-82
2022/07/27 03:35:04;;;;;;;5.95;1.10;;;9.60;9.60;;;;;;4994431;28;20026;-83
2022/07/27 03:37:30;;;;;;;4.93;0.82;;;9.70;7.40;;;;;;4994310;28;20089;-81
2022/07/27 03:39:55;;;;;;;7.03;1.17;;;9.70;3.10;;;;;;4994170;28;20057;-82
2022/07/27 03:42:21;;;;;;;3.03;0.90;;;9.70;1.00;;;;;;4994096;28;20030;-82
2022/07/27 03:44:46;;;;;;;3.65;1.00;;;9.80;1.00;;;;;;4993996;28;20031;-82
2022/07/27 03:47:12;;;;;;;3.70;1.30;;;9.90;1.00;;;;;;5005742;28;20030;-81
2022/07/27 03:49:37;;;;;;;2.28;0.90;;;10.00;1.00;;;;;;5013398;28;20069;-82
2022/07/27 03:52:03;;;;;;;3.17;0.75;;;10.00;1.00;;;;;;5013407;28;20028;-82
2022/07/27 03:54:29;;;;;;;4.18;0.80;;;10.10;1.00;;;;;;5013423;28;20115;-82
2022/07/27 03:56:54;;;;;;;5.47;0.90;;;10.20;1.00;;;;;;5013503;28;20037;-83
2022/07/27 03:59:20;;;;;;;1.50;0.80;;;10.20;1.00;;;;;;5013363;28;20144;-82
2022/07/27 04:01:46;;;;;;;1.33;0.70;;;10.20;1.00;;;;;;5013496;28;20026;-83
2022/07/27 04:04:12;;;;;;;3.53;1.10;;;10.40;1.00;;;;;;5012964;28;20022;-83
2022/07/27 04:06:37;;;;;;;3.83;0.90;;;10.60;1.00;;;;;;4995637;28;20033;-83
2022/07/27 04:09:03;;;;;;;1.65;0.70;;;11.00;1.00;;;;;;4993555;28;20026;-83
2022/07/27 04:11:29;;;;;;;3.13;0.77;;;11.20;1.00;;;;;;4993599;28;20034;-82
2022/07/27 04:13:54;;;;;;;3.40;0.90;;;11.30;1.00;;;;;;4993420;28;20022;-82
2022/07/27 04:16:20;;;;;;;4.32;0.80;;;11.40;1.00;;;;;;4993453;28;20027;-82
2022/07/27 04:18:45;;;;;;;6.00;1.35;;;11.50;1.00;;;;;;4993480;28;20073;-83
2022/07/27 04:21:12;;;;;;;3.83;1.20;;;11.60;1.00;;;;;;4993391;28;20076;-82
2022/07/27 04:23:38;;;;;;;3.38;0.90;;;11.70;1.00;;;;;;4993531;28;20018;-83
2022/07/27 04:26:03;;;;;;;2.95;0.90;;;11.80;1.00;;;;;;4994176;28;20425;-84
2022/07/27 04:28:29;;;;;;;4.85;0.95;;;11.90;1.00;;;;;;4993303;28;20066;-83
2022/07/27 04:30:54;;;;;;;5.55;1.10;;;12.00;1.00;;;;;;4993438;28;20027;-84
2022/07/27 04:33:20;;;;;;;2.33;0.90;;;12.10;1.00;;;;;;4992946;28;20053;-82
2022/07/27 04:35:45;;;;;;;3.17;1.15;;;12.20;1.00;;;;;;4993319;28;20061;-82
2022/07/27 04:38:11;;;;;;;3.00;1.23;;;12.50;1.00;;;;;;4993067;28;20084;-82
2022/07/27 04:40:37;;;;;;;5.80;1.10;;;12.50;1.00;;;;;;4993224;28;20081;-82
2022/07/27 04:43:04;;;;;;;5.38;1.70;;;12.60;1.00;;;;;;4993054;28;20030;-83
2022/07/27 04:45:30;;;;;;;3.40;1.10;;;12.70;1.00;;;;;;4998307;28;20050;-83
2022/07/27 04:47:56;;;;;;;1.90;0.80;;;12.90;1.00;;;;;;5012517;28;20061;-83
2022/07/27 04:50:21;;;;;;;4.22;1.23;;;13.00;1.00;;;;;;5012584;28;20037;-83
2022/07/27 04:52:48;;;;;;;3.28;1.08;;;12.90;1.00;;;;;;5012618;28;20458;-82
2022/07/27 04:55:13;;;;;;;5.68;1.10;;;12.80;1.00;;;;;;5012828;28;20022;-82
2022/07/27 04:57:40;;;;;;;3.65;1.27;;;12.90;1.00;;;;;;5012635;28;20141;-82
2022/07/27 05:00:08;;;;;;;2.42;0.95;;;13.10;1.00;;;;;;5012810;28;20109;-83
2022/07/27 05:02:33;;;;;;;2.00;1.35;;;13.10;1.00;;;;;;4994779;28;20574;-83
2022/07/27 05:04:59;;;;;;;3.55;1.30;;;13.20;1.00;;;;;;5012485;28;20504;-83
2022/07/27 05:07:25;;;;;;;4.07;1.13;;;13.20;1.00;;;;;;5001281;28;20156;-83
2022/07/27 05:09:51;;;;;;;3.72;0.93;;;14.50;1.00;;;;;;4992838;28;20482;-83
2022/07/27 05:12:16;;;;;;;3.03;0.90;;;18.10;99.90;;;;;;4992896;28;20026;-83
2022/07/27 05:14:42;;;;;;;5.07;0.90;;;20.90;99.90;;;;;;4992873;28;20027;-82
2022/07/27 05:17:08;;;;;;;2.55;0.93;;;22.80;99.90;;;;;;4995799;28;20026;-81
2022/07/27 05:19:33;;;;;;;2.15;0.80;;;24.20;99.90;;;;;;4996357;28;20023;-82
2022/07/27 05:21:59;;;;;;;6.60;0.80;;;25.30;99.90;;;;;;4996333;28;20105;-82
2022/07/27 05:24:25;;;;;;;5.55;0.90;;;26.30;99.90;;;;;;4996434;28;20036;-83
2022/07/27 05:26:51;;;;;;;4.57;1.02;;;27.40;99.90;;;;;;4996636;28;20022;-83
2022/07/27 05:29:17;;;;;;;3.72;0.82;;;27.80;99.90;;;;;;4996754;28;20026;-83
2022/07/27 05:31:43;;;;;;;4.25;0.93;;;28.60;99.90;;;;;;4996570;28;20026;-84
2022/07/27 05:34:09;;;;;;;2.03;0.75;;;29.60;99.90;;;;;;4996375;28;20153;-84
2022/07/27 05:36:34;;;;;;;4.35;0.60;;;30.30;99.90;;;;;;4996604;28;20027;-83
2022/07/27 05:39:00;;;;;;;3.35;0.70;;;30.60;99.90;;;;;;4996927;28;20019;-81
2022/07/27 05:41:26;;;;;;;1.73;0.60;;;30.50;99.90;;;;;;4996586;28;20033;-80
2022/07/27 05:43:55;;;;;;;4.45;1.17;;;31.60;99.90;;;;;;4996475;28;20046;-80
2022/07/27 05:46:22;;;;;;;3.60;0.57;;;32.00;99.90;;;;;;4996352;28;20068;-81
2022/07/27 05:48:48;;;;;;;2.50;0.70;;;32.90;99.90;;;;;;4996415;28;20069;-80
2022/07/27 05:51:13;;;;;;;1.40;0.68;;;33.50;99.90;;;;;;5004498;28;20017;-79
2022/07/27 05:53:39;;;;;;;0.98;0.65;;;34.00;99.90;;;;;;5016306;28;20261;-80
2022/07/27 05:56:06;;;;;;;1.95;0.77;;;33.80;99.90;;;;;;5016070;28;20381;-81
2022/07/27 05:58:32;;;;;;;2.97;0.70;;;34.20;99.90;;;;;;5016231;28;20022;-80
2022/07/27 06:00:58;;;;;;;2.65;0.70;;;34.20;99.90;;;;;;5015890;28;20030;-82
2022/07/27 06:03:25;;;;;;;2.50;0.60;;;35.00;99.90;;;;;;4998976;28;20018;-81
2022/07/27 06:05:51;;;;;;;1.60;0.60;;;35.20;99.90;;;;;;4996086;28;20030;-81
2022/07/27 06:08:16;;;;;;;2.75;0.70;;;35.00;99.90;;;;;;4995951;28;20037;-82
2022/07/27 06:10:42;;;;;;;1.33;0.57;;;34.80;99.90;;;;;;4995904;28;20030;-81
2022/07/27 06:13:13;;;;;;;2.08;0.57;;;34.30;99.90;;;;;;4996095;28;20022;-82
2022/07/27 06:15:39;;;;;;;1.85;0.65;;;34.50;99.90;;;;;;4996036;28;20022;-81
2022/07/27 06:18:07;;;;;;;2.38;0.68;;;33.90;99.90;;;;;;4996311;28;20022;-81
2022/07/27 06:20:33;;;;;;;5.15;0.93;;;34.90;99.90;;;;;;4995770;28;20447;-81
2022/07/27 06:23:02;;;;;;;5.22;0.77;;;35.40;99.90;;;;;;4995681;28;20490;-82
2022/07/27 06:25:31;;;;;;;3.60;0.80;;;35.00;99.90;;;;;;4995832;28;20022;-82
2022/07/27 06:27:56;;;;;;;2.70;0.68;;;35.30;99.90;;;;;;4995774;28;20069;-81
2022/07/27 06:30:22;;;;;;;3.40;0.50;;;34.60;99.90;;;;;;4996217;28;20058;-81
2022/07/27 06:32:47;;;;;;;0.65;0.38;;;34.40;99.90;;;;;;4996377;28;20407;-82
2022/07/27 06:35:13;;;;;;;2.60;0.85;;;34.20;99.90;;;;;;5003744;28;20096;-81
2022/07/27 06:37:42;;;;;;;1.88;0.65;;;34.40;99.90;;;;;;5016477;28;20083;-81
2022/07/27 06:40:13;;;;;;;1.27;0.50;;;35.00;99.90;;;;;;5001668;28;20469;-81
2022/07/27 06:42:39;;;;;;;1.98;0.52;;;35.20;99.90;;;;;;4996680;28;20327;-80
2022/07/27 06:45:06;;;;;;;2.03;0.52;;;36.20;99.90;;;;;;4996144;28;20066;-81
2022/07/27 06:47:32;;;;;;;3.17;0.80;;;37.30;99.90;;;;;;4996147;28;20058;-81
2022/07/27 06:49:58;;;;;;;1.83;0.90;;;38.10;99.90;;;;;;4992825;28;20059;-81
2022/07/27 06:52:23;;;;;;;1.90;0.70;;;36.60;99.90;;;;;;4994219;28;20026;-80
2022/07/27 06:54:49;;;;;;;2.03;0.70;;;33.30;99.90;;;;;;4995161;28;20375;-81
2022/07/27 06:57:15;;;;;;;1.95;0.50;;;29.60;99.90;;;;;;4994995;28;20030;-80
2022/07/27 06:59:40;;;;;;;1.55;0.57;;;28.20;99.90;;;;;;4995263;28;20029;-81
2022/07/27 07:02:06;;;;;;;1.23;0.47;;;26.60;99.90;;;;;;4995231;28;20022;-84
2022/07/27 07:04:32;;;;;;;3.55;0.70;;;32.70;99.90;;;;;;4996178;28;20533;-83
2022/07/27 07:07:00;;;;;;;2.60;0.70;;;35.90;99.90;;;;;;4995668;28;20022;-80
2022/07/27 07:09:27;;;;;;;1.92;0.60;;;36.00;99.90;;;;;;4996274;28;20019;-79
2022/07/27 07:11:53;;;;;;;1.42;0.50;;;34.50;99.90;;;;;;4995571;28;20022;-80
2022/07/27 07:14:18;;;;;;;2.47;0.75;;;33.50;99.90;;;;;;4995714;28;20101;-81
2022/07/27 07:16:44;;;;;;;2.10;0.70;;;30.80;99.90;;;;;;4995417;28;20026;-81
2022/07/27 07:19:09;;;;;;;2.38;0.60;;;28.90;99.90;;;;;;4995497;28;20041;-82
2022/07/27 07:21:35;;;;;;;1.42;0.65;;;28.00;99.90;;;;;;4994644;28;20458;-80
2022/07/27 07:24:00;;;;;;;4.28;0.90;;;26.00;99.90;;;;;;4994553;28;20433;-80
2022/07/27 07:26:26;;;;;;;1.77;0.80;;;26.20;99.90;;;;;;4994594;28;20485;-80
2022/07/27 07:28:51;;;;;;;1.55;0.70;;;26.20;99.90;;;;;;4995129;28;20482;-81
2022/07/27 07:31:19;;;;;;;3.03;0.60;;;25.10;99.90;;;;;;4995645;28;20101;-81
2022/07/27 07:33:44;;;;;;;3.55;0.80;;;26.10;99.90;;;;;;4996071;28;20057;-81
2022/07/27 07:36:10;;;;;;;3.75;0.88;;;32.90;99.90;;;;;;4978814;28;20030;-81
2022/07/27 07:38:36;;;;;;;2.63;0.77;;;34.90;99.90;;;;;;4994588;28;20030;-81
2022/07/27 07:41:01;;;;;;;4.38;1.00;;;34.40;99.90;;;;;;4995240;28;20519;-81
2022/07/27 07:43:27;;;;;;;1.23;0.55;;;37.00;99.90;;;;;;4996452;28;20026;-80
2022/07/27 07:45:54;;;;;;;1.90;0.63;;;35.20;99.90;;;;;;4997099;28;20064;-79
2022/07/27 07:48:20;;;;;;;3.42;0.90;;;30.50;99.90;;;;;;5016228;28;20370;-80
2022/07/27 07:50:47;;;;;;;2.80;0.60;;;31.70;99.90;;;;;;5008912;28;20050;-79
2022/07/27 07:53:14;;;;;;;1.38;0.70;;;28.70;99.90;;;;;;5009713;28;20109;-79
2022/07/27 07:55:39;;;;;;;3.67;0.75;;;27.10;99.90;;;;;;5003847;28;20084;-79
2022/07/27 07:58:05;;;;;;;2.03;0.60;;;27.50;99.90;;;;;;5014713;28;20366;-80
2022/07/27 08:00:31;;;;;;;1.42;0.70;;;26.50;99.90;;;;;;4995422;28;20524;-79
2022/07/27 08:02:57;;;;;;;3.00;0.80;;;25.90;99.90;;;;;;5005372;28;20026;-80
2022/07/27 08:05:23;;;;;;;1.40;0.50;;;25.10;99.90;;;;;;5011094;28;20038;-81
2022/07/27 08:07:49;;;;;;;2.47;1.08;;;24.20;99.90;;;;;;5011520;28;20066;-79
2022/07/27 08:10:16;;;;;;;3.67;0.88;;;23.90;99.90;;;;;;4991967;28;20461;-80
2022/07/27 08:12:45;;;;;;;2.08;0.70;;;23.10;99.90;;;;;;4991785;28;20056;-79
2022/07/27 08:15:12;;;;;;;4.78;0.90;;;22.40;99.90;;;;;;5002142;28;20026;-81
2022/07/27 08:17:38;;;;;;;2.78;0.85;;;21.50;99.90;;;;;;4993905;28;20447;-80
2022/07/27 08:20:05;;;;;;;5.70;0.90;;;21.40;99.90;;;;;;4993868;28;20485;-81
2022/07/27 08:22:31;;;;;;;4.43;1.17;;;21.30;99.90;;;;;;4995399;28;20034;-81
2022/07/27 08:24:57;;;;;;;2.28;0.77;;;21.00;99.90;;;;;;4984630;28;20027;-80
2022/07/27 08:27:22;;;;;;;3.28;0.93;;;20.70;99.90;;;;;;5001860;28;20030;-80
2022/07/27 08:29:48;;;;;;;2.38;0.80;;;20.50;99.90;;;;;;5008930;28;20034;-81
2022/07/27 08:32:14;;;;;;;2.63;0.77;;;20.40;99.90;;;;;;4993648;28;20053;-81
2022/07/27 08:34:39;;;;;;;5.40;0.90;;;20.30;99.90;;;;;;4993087;28;20515;-78
2022/07/27 08:37:05;;;;;;;4.10;0.82;;;20.30;99.90;;;;;;4993171;28;20030;-78
2022/07/27 08:39:31;;;;;;;2.42;0.95;;;20.70;99.90;;;;;;4993629;28;20054;-80
2022/07/27 08:41:59;;;;;;;2.92;1.02;;;21.00;99.90;;;;;;4993473;28;20030;-80
2022/07/27 08:44:28;;;;;;;5.82;1.23;;;21.90;99.90;;;;;;4993404;28;20030;-80
2022/07/27 08:46:55;;;;;;;1.35;0.93;;;22.30;99.90;;;;;;4993782;28;20118;-79
2022/07/27 08:49:22;;;;;;;2.15;0.90;;;21.90;99.90;;;;;;4993182;28;20030;-79
2022/07/27 08:51:48;;;;;;;4.82;1.23;;;22.70;99.90;;;;;;4993208;28;20074;-82
2022/07/27 08:54:14;;;;;;;3.20;1.00;;;28.60;99.90;;;;;;4993039;28;20054;-82
2022/07/27 08:56:39;;;;;;;3.30;0.98;;;33.10;99.90;;;;;;4993116;28;20029;-83
2022/07/27 08:59:05;;;;;;;3.85;1.10;;;33.30;99.90;;;;;;4992985;28;20030;-83
2022/07/27 09:01:32;;;;;;;2.88;0.80;;;34.20;99.90;;;;;;4993008;28;20362;-82
2022/07/27 09:03:58;;;;;;;2.83;0.93;;;33.20;99.90;;;;;;4993000;28;20354;-82
2022/07/27 09:06:47;;;;;;;2.58;0.40;;;28.50;99.90;;;;;;4993168;28;20513;-79
2022/07/27 09:09:16;;;;;;;3.22;0.73;;;30.90;99.90;;;;;;4992753;28;20088;-80
2022/07/27 09:11:43;;;;;;;3.15;0.60;;;35.10;99.90;;;;;;5010750;28;20120;-79
2022/07/27 09:14:11;;;;;;;1.58;0.60;;;35.60;99.90;;;;;;5006795;28;20463;-81
2022/07/27 09:16:37;;;;;;;2.47;0.52;;;35.00;99.90;;;;;;4993140;28;20049;-81
2022/07/27 09:19:08;;;;;;;2.88;0.70;;;33.70;99.90;;;;;;4992758;28;20036;-81
2022/07/27 09:21:36;;;;;;;2.13;0.60;;;30.50;99.90;;;;;;4992853;28;20026;-79
2022/07/27 09:24:07;;;;;;;1.95;0.60;;;32.30;99.90;;;;;;4992520;28;20602;-80
2022/07/27 09:26:33;;;;;;;3.10;0.63;;;33.50;99.90;;;;;;4992800;28;20105;-81
2022/07/27 09:29:04;;;;;;;0.57;0.50;;;35.80;99.90;;;;;;4992224;28;20034;-80
2022/07/27 09:31:31;;;;;;;2.88;0.82;;;35.70;99.90;;;;;;4992410;28;20498;-81
2022/07/27 09:33:59;;;;;;;2.65;0.63;;;34.40;99.90;;;;;;4999188;28;20129;-82
2022/07/27 09:36:27;;;;;;;3.17;0.60;;;33.80;99.90;;;;;;4992826;28;20089;-80
2022/07/27 09:39:06;;;;;;;1.85;0.68;;;29.20;99.90;;;;;;4992747;28;20138;-81
2022/07/27 09:41:39;;;;;;;2.00;0.70;;;26.80;99.90;;;;;;4973303;28;20023;-82
2022/07/27 09:44:05;;;;;;;1.58;0.50;;;29.90;99.90;;;;;;4983902;28;20023;-81
2022/07/27 09:46:38;;;;;;;1.20;0.50;;;33.80;99.90;;;;;;4992629;28;20813;-80
2022/07/27 09:49:05;;;;;;;3.70;0.50;;;29.80;99.90;;;;;;4992613;28;20043;-81
2022/07/27 09:51:31;;;;;;;1.42;0.40;;;26.80;99.90;;;;;;4992576;28;20054;-80
2022/07/27 09:53:58;;;;;;;1.33;0.75;;;31.10;99.90;;;;;;4992353;28;20050;-80
2022/07/27 09:56:29;;;;;;;3.20;0.65;;;29.50;99.90;;;;;;4992476;28;20106;-81
2022/07/27 09:58:59;;;;;;;0.95;0.40;;;29.70;99.90;;;;;;4992432;28;20066;-80
2022/07/27 10:01:34;;;;;;;2.05;0.63;;;33.40;99.90;;;;;;4992866;28;20041;-80
2022/07/27 10:04:03;;;;;;;2.67;0.47;;;34.70;99.90;;;;;;5014843;28;20034;-81
2022/07/27 10:06:29;;;;;;;0.30;0.30;;;34.80;99.90;;;;;;5015645;28;20080;-81
2022/07/27 10:08:56;;;;;;;1.85;0.40;;;31.10;99.90;;;;;;5015577;28;20033;-81
2022/07/27 10:11:23;;;;;;;1.00;0.40;;;27.80;99.90;;;;;;5015493;28;20034;-80
2022/07/27 10:13:50;;;;;;;3.22;0.50;;;27.40;99.90;;;;;;5012562;28;20023;-81
2022/07/27 10:16:19;;;;;;;2.08;0.70;;;32.40;99.90;;;;;;4995758;28;20088;-80
2022/07/27 10:18:53;;;;;;;1.73;0.60;;;34.50;99.90;;;;;;4995682;28;20363;-80
2022/07/27 10:21:21;;;;;;;1.55;0.40;;;34.90;99.90;;;;;;4995907;28;20504;-80
2022/07/27 10:24:01;;;;;;;3.28;0.60;;;35.20;99.90;;;;;;4995623;28;20510;-80
2022/07/27 10:26:31;;;;;;;0.95;0.50;;;34.50;99.90;;;;;;4995590;28;20363;-78
2022/07/27 10:29:05;;;;;;;2.35;0.68;;;35.40;99.90;;;;;;4995456;28;20418;-79
2022/07/27 10:31:36;;;;;;;2.85;0.70;;;32.00;99.90;;;;;;4995536;28;20469;-80
2022/07/27 10:34:05;;;;;;;1.70;0.50;;;36.00;99.90;;;;;;4995024;28;21641;-82
2022/07/27 10:36:30;;;;;;;1.48;0.50;;;36.70;99.90;;;;;;4995550;28;20419;-81
2022/07/27 10:39:03;;;;;;;1.75;0.55;;;32.70;99.90;;;;;;4995560;28;20026;-81
2022/07/27 10:41:31;;;;;;;1.42;0.50;;;33.00;99.90;;;;;;4995471;28;20038;-81
2022/07/27 10:44:21;;;;;;;2.45;0.50;;;33.60;99.90;;;;;;4995483;28;20019;-81
2022/07/27 10:46:51;;;;;;;;;;;33.00;99.90;;;;;;4995724;28;20109;-81
2022/07/27 10:49:21;;;;;;;0.65;0.25;;;29.60;99.90;;;;;;4995245;28;20357;-80
2022/07/27 10:51:49;;;;;;;2.67;0.40;;;26.30;99.90;;;;;;4995174;28;20077;-81
2022/07/27 10:54:21;;;;;;;0.50;0.40;;;31.50;99.90;;;;;;4995318;28;20028;-81
2022/07/27 10:56:48;;;;;;;4.18;0.52;;;32.50;99.90;;;;;;4995164;28;20040;-80
2022/07/27 10:59:38;;;;;;;2.05;0.65;;;33.50;99.90;;;;;;4995326;28;20113;-81
2022/07/27 11:02:09;;;;;;;2.33;0.63;;;33.30;99.90;;;;;;4996295;28;20030;-79
2022/07/27 11:04:44;;;;;;;0.95;0.40;;;32.80;99.90;;;;;;4976059;28;20047;-80
2022/07/27 11:07:09;;;;;;;1.40;0.50;;;31.40;99.90;;;;;;4975401;28;20031;-79
2022/07/27 11:09:40;;;;;;;1.27;0.50;;;31.50;99.90;;;;;;4975491;28;20027;-79
2022/07/27 11:12:08;;;;;;;1.55;0.50;;;31.80;99.90;;;;;;4975372;28;20093;-79
2022/07/27 11:14:55;;;;;;;1.23;0.45;;;30.70;99.90;;;;;;4983234;28;20088;-79
2022/07/27 11:17:24;;;;;;;0.47;0.47;;;30.90;99.90;;;;;;4994694;28;20112;-79
2022/07/27 11:19:57;;;;;;;1.02;0.40;;;30.20;99.90;;;;;;4994564;28;20363;-78
2022/07/27 11:22:39;;;;;;;1.73;0.60;;;27.90;99.90;;;;;;4995181;28;20035;-80
2022/07/27 11:25:06;;;;;;;2.05;0.40;;;26.50;99.90;;;;;;4994672;28;20026;-84
2022/07/27 11:27:32;;;;;;;3.33;0.60;;;26.30;99.90;;;;;;4994475;28;20470;-81
2022/07/27 11:29:58;;;;;;;2.08;0.30;;;26.20;99.90;;;;;;4995191;28;20173;-83
2022/07/27 11:32:23;;;;;;;1.95;0.40;;;25.90;99.90;;;;;;4994463;28;20135;-82
2022/07/27 11:34:50;;;;;;;2.85;0.60;;;25.80;99.90;;;;;;4994126;28;20053;-82
2022/07/27 11:37:18;;;;;;;2.85;0.57;;;26.00;99.90;;;;;;4994274;28;20034;-85
2022/07/27 11:39:45;;;;;;;2.35;0.70;;;25.70;99.90;;;;;;4994268;28;20558;-84
2022/07/27 11:42:10;;;;;;;3.83;0.50;;;25.10;99.90;;;;;;4994211;28;20026;-83
2022/07/27 11:44:38;;;;;;;1.63;0.52;;;25.00;99.90;;;;;;4994139;28;20025;-84
2022/07/27 11:47:04;;;;;;;1.67;0.50;;;25.40;99.90;;;;;;4994295;28;20113;-84
2022/07/27 11:49:31;;;;;;;2.95;0.50;;;24.70;99.90;;;;;;4994397;28;20030;-78
2022/07/27 11:51:59;;;;;;;1.17;0.50;;;24.10;99.90;;;;;;4993993;28;20034;-78
2022/07/27 11:54:34;;;;;;;2.72;0.50;;;24.00;99.90;;;;;;4994303;28;20535;-78
2022/07/27 11:57:17;;;;;;;1.85;0.75;;;23.80;99.90;;;;;;4993921;28;20431;-78
2022/07/27 11:59:44;;;;;;;1.50;0.40;;;23.10;99.90;;;;;;4974698;28;20061;-80
2022/07/27 12:02:16;;;;;;;1.70;0.70;;;22.70;99.90;;;;;;4974358;28;20073;-80
2022/07/27 12:04:46;;;;;;;2.25;0.70;;;23.20;99.90;;;;;;4974834;28;20027;-78
2022/07/27 12:07:15;;;;;;;1.45;0.43;;;23.60;99.90;;;;;;4974291;28;20105;-80
2022/07/27 12:10:03;;;;;;;2.75;0.52;;;23.70;99.90;;;;;;4974742;28;20037;-80
2022/07/27 12:12:33;;;;;;;1.33;0.45;;;24.20;99.90;;;;;;4974233;28;20035;-80
2022/07/27 12:15:01;;;;;;;4.40;0.40;;;23.90;99.90;;;;;;4986505;28;20477;-80
2022/07/27 12:17:26;;;;;;;3.30;0.75;;;23.60;99.90;;;;;;4994496;28;20046;-80
2022/07/27 12:19:54;;;;;;;2.38;0.60;;;23.20;99.90;;;;;;5000269;28;20022;-80
2022/07/27 12:22:37;;;;;;;1.50;0.60;;;23.00;99.90;;;;;;4995702;28;20405;-78
2022/07/27 12:25:10;;;;;;;1.13;0.40;;;22.40;99.90;;;;;;5001063;28;20057;-81
2022/07/27 12:27:36;;;;;;;3.90;0.57;;;22.20;99.90;;;;;;4997757;28;20069;-84
2022/07/27 12:30:09;;;;;;;3.13;1.20;;;22.00;99.90;;;;;;4999792;28;20421;-84
2022/07/27 12:32:38;;;;;;;5.63;0.60;;;22.80;99.90;;;;;;5010571;28;20029;-79
2022/07/27 12:35:26;;;;;;;0.52;0.40;;;22.10;99.90;;;;;;4988230;28;20054;-79
2022/07/27 12:38:06;;;;;;;3.60;0.50;;;22.10;99.90;;;;;;4986212;28;20460;-78
2022/07/27 12:40:33;;;;;;;0.93;0.45;;;22.60;99.90;;;;;;4996815;28;20046;-78
2022/07/27 12:43:00;;;;;;;3.05;0.55;;;22.30;99.90;;;;;;4997086;28;20467;-78
2022/07/27 12:45:34;;;;;;;2.25;0.60;;;22.00;99.90;;;;;;5017412;28;20029;-78
2022/07/27 12:48:17;;;;;;;2.88;0.75;;;22.60;99.90;;;;;;5002809;28;20080;-78
2022/07/27 12:50:45;;;;;;;1.48;0.40;;;23.10;99.90;;;;;;4998651;28;20162;-78
2022/07/27 12:53:13;;;;;;;1.10;0.30;;;23.60;99.90;;;;;;5001645;28;20017;-78
2022/07/27 12:55:40;;;;;;;1.58;0.30;;;23.40;99.90;;;;;;5003040;28;20027;-78
2022/07/27 12:58:10;;;;;;;4.60;0.50;;;23.50;99.90;;;;;;4998237;28;20069;-80